SVA501 OEJN-OEMA
Flight info
| Callsign | SVA501 |
|---|---|
| Flight time | 0h 38m |
| Altitude | 23000 |
| Route | DATAP3V DATAP A424 DEGVU DEGVU1G |
| Aircraft | A20N/M-SDE2E3FGHIRWXY/LB1 |
Departure
| Time | 2026-04-24 20:05 |
|---|---|
| Airport | King Abdulaziz International Airport (OEJN) |
Arrival
| Time | 2026-04-24 20:44 |
|---|---|
| Airport | Prince Mohammad Bin Abdulaziz Airport (OEMA) |
| Time | Latitude | Longitude | Altitude | Speed | Heading |
|---|---|---|---|---|---|
| 2026-04-24 19:35 | 21.66765 | 39.17177 | 31 ft | 0 kts | 249° |
| 2026-04-24 19:55 | 21.66772 | 39.17194 | 31 ft | 4 kts | 249° |
| 2026-04-24 19:55 | 21.66781 | 39.17222 | 31 ft | 4 kts | 249° |
| 2026-04-24 19:55 | 21.66791 | 39.17248 | 32 ft | 4 kts | 245° |
| 2026-04-24 19:56 | 21.66804 | 39.17273 | 31 ft | 4 kts | 224° |
| 2026-04-24 19:56 | 21.66825 | 39.17285 | 33 ft | 3 kts | 164° |
| 2026-04-24 19:56 | 21.66828 | 39.17284 | 33 ft | 3 kts | 160° |
| 2026-04-24 20:01 | 21.66822 | 39.17286 | 33 ft | 4 kts | 160° |
| 2026-04-24 20:02 | 21.66762 | 39.17309 | 31 ft | 14 kts | 160° |
| 2026-04-24 20:02 | 21.66640 | 39.17356 | 33 ft | 23 kts | 160° |
| 2026-04-24 20:02 | 21.66500 | 39.17460 | 33 ft | 12 kts | 118° |
| 2026-04-24 20:02 | 21.66492 | 39.17496 | 33 ft | 7 kts | 93° |
| 2026-04-24 20:03 | 21.66511 | 39.17580 | 33 ft | 15 kts | 69° |
| 2026-04-24 20:03 | 21.66555 | 39.17712 | 34 ft | 19 kts | 70° |
| 2026-04-24 20:03 | 21.66605 | 39.17860 | 37 ft | 21 kts | 70° |
| 2026-04-24 20:03 | 21.66644 | 39.17975 | 42 ft | 17 kts | 70° |
| 2026-04-24 20:04 | 21.66710 | 39.18025 | 46 ft | 14 kts | 332° |
| 2026-04-24 20:04 | 21.66764 | 39.18002 | 46 ft | 0 kts | 340° |
| 2026-04-24 20:04 | 21.66836 | 39.17974 | 46 ft | 45 kts | 340° |
| 2026-04-24 20:05 | 21.67449 | 39.17735 | 40 ft | 140 kts | 340° |
| 2026-04-24 20:05 | 21.68554 | 39.17306 | 456 ft | 174 kts | 341° |
| 2026-04-24 20:05 | 21.69686 | 39.16875 | 1535 ft | 165 kts | 340° |
| 2026-04-24 20:05 | 21.70722 | 39.16494 | 2318 ft | 147 kts | 341° |
| 2026-04-24 20:06 | 21.71781 | 39.16192 | 2424 ft | 177 kts | 346° |
| 2026-04-24 20:06 | 21.73065 | 39.15887 | 2574 ft | 209 kts | 348° |
| 2026-04-24 20:06 | 21.74643 | 39.15753 | 2699 ft | 243 kts | 14° |
| 2026-04-24 20:06 | 21.76145 | 39.16654 | 3082 ft | 259 kts | 52° |
| 2026-04-24 20:07 | 21.76885 | 39.17729 | 3407 ft | 270 kts | 60° |
| 2026-04-24 20:07 | 21.78530 | 39.19875 | 4460 ft | 286 kts | 44° |
| 2026-04-24 20:07 | 21.80100 | 39.21174 | 5351 ft | 290 kts | 36° |
| 2026-04-24 20:07 | 21.81806 | 39.22351 | 6289 ft | 292 kts | 31° |
| 2026-04-24 20:08 | 21.83554 | 39.23483 | 7148 ft | 295 kts | 30° |
| 2026-04-24 20:08 | 21.85344 | 39.24639 | 8030 ft | 298 kts | 29° |
| 2026-04-24 20:08 | 21.87120 | 39.25816 | 8886 ft | 302 kts | 29° |
| 2026-04-24 20:08 | 21.88908 | 39.27034 | 9749 ft | 306 kts | 29° |
| 2026-04-24 20:09 | 21.90712 | 39.28284 | 10521 ft | 311 kts | 30° |
| 2026-04-24 20:09 | 21.92541 | 39.29563 | 11293 ft | 316 kts | 30° |
| 2026-04-24 20:09 | 21.94416 | 39.30877 | 11855 ft | 331 kts | 30° |
| 2026-04-24 20:09 | 21.96461 | 39.32258 | 12134 ft | 354 kts | 29° |
| 2026-04-24 20:10 | 21.98633 | 39.33692 | 12352 ft | 378 kts | 29° |
| 2026-04-24 20:10 | 22.00946 | 39.35206 | 12502 ft | 401 kts | 29° |
| 2026-04-24 20:10 | 22.03396 | 39.36811 | 12676 ft | 420 kts | 29° |
| 2026-04-24 20:10 | 22.05918 | 39.38469 | 13178 ft | 429 kts | 30° |
| 2026-04-24 20:11 | 22.08484 | 39.40165 | 13760 ft | 435 kts | 30° |
| 2026-04-24 20:11 | 22.11076 | 39.41886 | 14317 ft | 440 kts | 30° |
| 2026-04-24 20:11 | 22.13698 | 39.43628 | 14874 ft | 445 kts | 30° |
| 2026-04-24 20:11 | 22.16351 | 39.45388 | 15445 ft | 450 kts | 29° |
| 2026-04-24 20:12 | 22.19032 | 39.47167 | 15996 ft | 455 kts | 29° |
| 2026-04-24 20:12 | 22.21764 | 39.48929 | 16513 ft | 459 kts | 24° |
| 2026-04-24 20:12 | 22.24752 | 39.50095 | 17006 ft | 457 kts | 8° |
| 2026-04-24 20:12 | 22.26073 | 39.50329 | 17223 ft | 456 kts | 2° |
| 2026-04-24 20:13 | 22.27531 | 39.50472 | 17464 ft | 457 kts | 0° |
| 2026-04-24 20:13 | 22.30718 | 39.50764 | 18007 ft | 461 kts | 1° |
| 2026-04-24 20:13 | 22.33916 | 39.51099 | 18502 ft | 465 kts | 1° |
| 2026-04-24 20:14 | 22.37153 | 39.51466 | 18948 ft | 468 kts | 1° |
| 2026-04-24 20:14 | 22.40399 | 39.51843 | 19397 ft | 471 kts | 2° |
| 2026-04-24 20:14 | 22.43625 | 39.52217 | 19821 ft | 474 kts | 2° |
| 2026-04-24 20:14 | 22.46961 | 39.52595 | 20244 ft | 477 kts | 1° |
| 2026-04-24 20:15 | 22.50282 | 39.52961 | 20535 ft | 483 kts | 1° |
| 2026-04-24 20:15 | 22.53656 | 39.53324 | 20687 ft | 491 kts | 1° |
| 2026-04-24 20:15 | 22.57076 | 39.53688 | 20969 ft | 495 kts | 1° |
| 2026-04-24 20:15 | 22.60514 | 39.54055 | 21284 ft | 497 kts | 1° |
| 2026-04-24 20:16 | 22.63966 | 39.54424 | 21592 ft | 500 kts | 1° |
| 2026-04-24 20:16 | 22.67441 | 39.54798 | 21889 ft | 502 kts | 1° |
| 2026-04-24 20:16 | 22.70887 | 39.55170 | 22194 ft | 505 kts | 1° |
| 2026-04-24 20:16 | 22.74396 | 39.55554 | 22473 ft | 507 kts | 2° |
| 2026-04-24 20:17 | 22.77953 | 39.55945 | 22754 ft | 509 kts | 2° |
| 2026-04-24 20:17 | 22.85016 | 39.56717 | 22884 ft | 510 kts | 1° |
| 2026-04-24 20:17 | 22.88547 | 39.57097 | 22889 ft | 510 kts | 1° |
| 2026-04-24 20:18 | 22.90886 | 39.57349 | 22890 ft | 510 kts | 1° |
| 2026-04-24 20:18 | 22.95613 | 39.57861 | 22889 ft | 510 kts | 1° |
| 2026-04-24 20:18 | 22.99140 | 39.58246 | 22894 ft | 510 kts | 1° |
| 2026-04-24 20:18 | 23.02667 | 39.58630 | 22897 ft | 510 kts | 1° |
| 2026-04-24 20:19 | 23.06197 | 39.59015 | 22897 ft | 509 kts | 1° |
| 2026-04-24 20:19 | 23.09723 | 39.59400 | 22899 ft | 509 kts | 1° |
| 2026-04-24 20:19 | 23.13251 | 39.59787 | 22901 ft | 509 kts | 1° |
| 2026-04-24 20:19 | 23.16774 | 39.60174 | 22907 ft | 509 kts | 1° |
| 2026-04-24 20:20 | 23.20303 | 39.60563 | 22910 ft | 509 kts | 1° |
| 2026-04-24 20:20 | 23.23873 | 39.60958 | 22916 ft | 509 kts | 1° |
| 2026-04-24 20:20 | 23.27397 | 39.61346 | 22934 ft | 509 kts | 1° |
| 2026-04-24 20:20 | 23.30919 | 39.61733 | 22915 ft | 508 kts | 1° |
| 2026-04-24 20:21 | 23.34442 | 39.62114 | 22927 ft | 509 kts | 1° |
| 2026-04-24 20:21 | 23.37962 | 39.62493 | 22933 ft | 508 kts | 1° |
| 2026-04-24 20:21 | 23.41481 | 39.62875 | 22944 ft | 508 kts | 1° |
| 2026-04-24 20:21 | 23.45002 | 39.63262 | 22947 ft | 508 kts | 1° |
| 2026-04-24 20:22 | 23.48521 | 39.63647 | 22951 ft | 508 kts | 1° |
| 2026-04-24 20:22 | 23.52038 | 39.64031 | 22960 ft | 508 kts | 1° |
| 2026-04-24 20:22 | 23.55554 | 39.64415 | 22966 ft | 508 kts | 0° |
| 2026-04-24 20:22 | 23.59069 | 39.64800 | 22964 ft | 507 kts | 0° |
| 2026-04-24 20:23 | 23.62581 | 39.65186 | 22969 ft | 507 kts | 0° |
| 2026-04-24 20:23 | 23.66090 | 39.65575 | 22972 ft | 507 kts | 0° |
| 2026-04-24 20:23 | 23.69595 | 39.65991 | 22971 ft | 508 kts | 4° |
| 2026-04-24 20:23 | 23.73049 | 39.66920 | 22979 ft | 516 kts | 15° |
| 2026-04-24 20:24 | 23.75272 | 39.67849 | 22980 ft | 517 kts | 17° |
| 2026-04-24 20:24 | 23.79749 | 39.69771 | 22982 ft | 517 kts | 17° |
| 2026-04-24 20:24 | 23.83101 | 39.71221 | 22981 ft | 517 kts | 18° |
| 2026-04-24 20:24 | 23.86433 | 39.72664 | 22974 ft | 516 kts | 18° |
| 2026-04-24 20:25 | 23.89782 | 39.74111 | 22979 ft | 516 kts | 17° |
| 2026-04-24 20:25 | 23.93122 | 39.75548 | 22977 ft | 516 kts | 17° |
| 2026-04-24 20:25 | 23.96435 | 39.76970 | 22975 ft | 515 kts | 17° |
| 2026-04-24 20:25 | 23.99770 | 39.78402 | 22967 ft | 515 kts | 17° |
| 2026-04-24 20:26 | 24.03105 | 39.79835 | 22961 ft | 516 kts | 17° |
| 2026-04-24 20:26 | 24.06450 | 39.81274 | 22956 ft | 514 kts | 17° |
| 2026-04-24 20:26 | 24.08665 | 39.82230 | 22960 ft | 498 kts | 17° |
| 2026-04-24 20:26 | 24.11851 | 39.83612 | 22966 ft | 475 kts | 17° |
| 2026-04-24 20:27 | 24.14825 | 39.84904 | 22963 ft | 457 kts | 17° |
| 2026-04-24 20:27 | 24.17795 | 39.86188 | 22960 ft | 451 kts | 17° |
| 2026-04-24 20:27 | 24.20738 | 39.87294 | 22964 ft | 440 kts | 9° |
| 2026-04-24 20:27 | 24.23715 | 39.87942 | 22558 ft | 426 kts | 0° |
| 2026-04-24 20:28 | 24.26647 | 39.87979 | 21930 ft | 416 kts | 347° |
| 2026-04-24 20:28 | 24.29494 | 39.87494 | 21307 ft | 413 kts | 343° |
| 2026-04-24 20:28 | 24.32320 | 39.86934 | 20689 ft | 412 kts | 342° |
| 2026-04-24 20:28 | 24.35137 | 39.86338 | 20027 ft | 414 kts | 342° |
| 2026-04-24 20:29 | 24.37012 | 39.85930 | 19592 ft | 415 kts | 342° |
| 2026-04-24 20:29 | 24.40811 | 39.85099 | 18737 ft | 416 kts | 342° |
| 2026-04-24 20:29 | 24.43655 | 39.84481 | 18089 ft | 418 kts | 343° |
| 2026-04-24 20:29 | 24.46555 | 39.83858 | 17346 ft | 419 kts | 343° |
| 2026-04-24 20:30 | 24.49389 | 39.83256 | 16586 ft | 409 kts | 343° |
| 2026-04-24 20:30 | 24.52140 | 39.82678 | 15848 ft | 397 kts | 343° |
| 2026-04-24 20:30 | 24.54814 | 39.82114 | 15127 ft | 386 kts | 343° |
| 2026-04-24 20:30 | 24.57413 | 39.81559 | 14431 ft | 377 kts | 342° |
| 2026-04-24 20:31 | 24.59965 | 39.81010 | 13728 ft | 370 kts | 342° |
| 2026-04-24 20:31 | 24.62466 | 39.80475 | 12968 ft | 363 kts | 343° |
| 2026-04-24 20:31 | 24.64918 | 39.79953 | 12215 ft | 355 kts | 344° |
| 2026-04-24 20:31 | 24.67342 | 39.79441 | 11474 ft | 347 kts | 345° |
| 2026-04-24 20:32 | 24.69694 | 39.78943 | 10759 ft | 340 kts | 345° |
| 2026-04-24 20:32 | 24.71998 | 39.78453 | 10045 ft | 333 kts | 345° |
| 2026-04-24 20:32 | 24.74280 | 39.77963 | 9311 ft | 326 kts | 346° |
| 2026-04-24 20:32 | 24.76495 | 39.77490 | 8560 ft | 320 kts | 347° |
| 2026-04-24 20:33 | 24.78684 | 39.77024 | 7818 ft | 315 kts | 348° |
| 2026-04-24 20:33 | 24.80833 | 39.76565 | 7100 ft | 310 kts | 349° |
| 2026-04-24 20:33 | 24.82947 | 39.76112 | 6400 ft | 306 kts | 350° |
| 2026-04-24 20:33 | 24.85226 | 39.75626 | 5727 ft | 296 kts | 351° |
| 2026-04-24 20:34 | 24.87008 | 39.75245 | 5789 ft | 264 kts | 351° |
| 2026-04-24 20:34 | 24.88756 | 39.74871 | 5888 ft | 230 kts | 351° |
| 2026-04-24 20:34 | 24.90221 | 39.74469 | 5945 ft | 218 kts | 336° |
| 2026-04-24 20:34 | 24.91478 | 39.73499 | 5658 ft | 220 kts | 310° |
| 2026-04-24 20:35 | 24.92222 | 39.72012 | 5331 ft | 220 kts | 283° |
| 2026-04-24 20:35 | 24.92326 | 39.70345 | 5264 ft | 206 kts | 257° |
| 2026-04-24 20:35 | 24.92029 | 39.68872 | 5261 ft | 201 kts | 253° |
| 2026-04-24 20:35 | 24.91729 | 39.67374 | 5266 ft | 199 kts | 253° |
| 2026-04-24 20:36 | 24.91221 | 39.65968 | 5278 ft | 193 kts | 232° |
| 2026-04-24 20:36 | 24.90352 | 39.64887 | 5269 ft | 187 kts | 213° |
| 2026-04-24 20:36 | 24.89235 | 39.64199 | 5268 ft | 183 kts | 194° |
| 2026-04-24 20:36 | 24.87985 | 39.63949 | 5268 ft | 179 kts | 176° |
| 2026-04-24 20:37 | 24.86745 | 39.64128 | 5276 ft | 177 kts | 166° |
| 2026-04-24 20:37 | 24.85556 | 39.64383 | 5273 ft | 173 kts | 166° |
| 2026-04-24 20:37 | 24.84386 | 39.64634 | 5276 ft | 173 kts | 167° |
| 2026-04-24 20:37 | 24.83186 | 39.64890 | 5283 ft | 174 kts | 166° |
| 2026-04-24 20:38 | 24.82015 | 39.65140 | 5277 ft | 173 kts | 166° |
| 2026-04-24 20:38 | 24.80844 | 39.65390 | 5276 ft | 174 kts | 167° |
| 2026-04-24 20:38 | 24.79632 | 39.65649 | 5282 ft | 177 kts | 167° |
| 2026-04-24 20:38 | 24.78780 | 39.65831 | 5286 ft | 177 kts | 165° |
| 2026-04-24 20:39 | 24.77570 | 39.66089 | 5283 ft | 177 kts | 167° |
| 2026-04-24 20:39 | 24.76340 | 39.66351 | 5279 ft | 178 kts | 168° |
| 2026-04-24 20:39 | 24.75132 | 39.66607 | 5288 ft | 180 kts | 166° |
| 2026-04-24 20:39 | 24.73880 | 39.66875 | 5217 ft | 181 kts | 166° |
| 2026-04-24 20:40 | 24.72639 | 39.67139 | 5041 ft | 182 kts | 167° |
| 2026-04-24 20:40 | 24.71407 | 39.67401 | 4829 ft | 179 kts | 166° |
| 2026-04-24 20:40 | 24.70188 | 39.67661 | 4598 ft | 177 kts | 166° |
| 2026-04-24 20:40 | 24.68981 | 39.67918 | 4380 ft | 178 kts | 166° |
| 2026-04-24 20:41 | 24.67757 | 39.68179 | 4156 ft | 181 kts | 166° |
| 2026-04-24 20:41 | 24.66533 | 39.68438 | 3918 ft | 177 kts | 166° |
| 2026-04-24 20:41 | 24.65344 | 39.68691 | 3700 ft | 171 kts | 166° |
| 2026-04-24 20:41 | 24.64187 | 39.68938 | 3490 ft | 165 kts | 166° |
| 2026-04-24 20:42 | 24.63085 | 39.69172 | 3303 ft | 158 kts | 165° |
| 2026-04-24 20:42 | 24.62036 | 39.69395 | 3092 ft | 149 kts | 167° |
| 2026-04-24 20:42 | 24.61034 | 39.69609 | 2885 ft | 145 kts | 169° |
| 2026-04-24 20:42 | 24.60059 | 39.69822 | 2688 ft | 142 kts | 169° |
| 2026-04-24 20:43 | 24.59099 | 39.70043 | 2480 ft | 141 kts | 168° |
| 2026-04-24 20:43 | 24.58141 | 39.70263 | 2302 ft | 140 kts | 172° |
| 2026-04-24 20:43 | 24.57188 | 39.70436 | 2171 ft | 138 kts | 172° |
| 2026-04-24 20:43 | 24.56365 | 39.70614 | 2123 ft | 68 kts | 170° |
| 2026-04-24 20:44 | 24.56032 | 39.70674 | 2115 ft | 45 kts | 172° |
| 2026-04-24 20:44 | 24.55728 | 39.70738 | 2106 ft | 44 kts | 169° |
| 2026-04-24 20:44 | 24.55435 | 39.70808 | 2101 ft | 40 kts | 162° |
| 2026-04-24 20:44 | 24.55251 | 39.70931 | 2099 ft | 6 kts | 140° |
| 2026-04-24 20:45 | 24.55250 | 39.70932 | 2099 ft | 0 kts | 140° |
| 2026-04-24 20:45 | 24.55225 | 39.70957 | 2099 ft | 15 kts | 132° |
| 2026-04-24 20:45 | 24.55222 | 39.71060 | 2099 ft | 12 kts | 79° |
| 2026-04-24 20:45 | 24.55238 | 39.71145 | 2100 ft | 10 kts | 78° |
| 2026-04-24 20:46 | 24.55268 | 39.71209 | 2101 ft | 11 kts | 31° |
| 2026-04-24 20:46 | 24.55336 | 39.71211 | 2102 ft | 9 kts | 351° |
| 2026-04-24 20:46 | 24.55370 | 39.71227 | 2103 ft | 4 kts | 53° |
| 2026-04-24 20:46 | 24.55383 | 39.71265 | 2103 ft | 5 kts | 77° |
| 2026-04-24 20:47 | 24.55390 | 39.71300 | 2103 ft | 4 kts | 81° |
| 2026-04-24 20:47 | 24.55391 | 39.71311 | 2103 ft | 0 kts | 81° |